Argus, CA

11:00 AM PDT on August 31, 2015 (GMT -0700)
Searles Valley | | Change Station
CLOSE
Current Station
Personal Weather Station
Location: Trona, CA
Elevation: 1696 ft
Nearby Weather Stations

Elev 1696 ft 35.77 °N, 117.38 °W | Updated 5 seconds ago

Clear
Clear
90.0 °F
Feels Like 87 °F
N
3.1
Wind Variable Wind from South
Gusts 5.4 mph

Today
High -- | Low -- °F
--% Chance of Precip.
Yesterday
High -- | Low -- °F
Precip. -- in
6:20 AM 7:18 PM
Waning Gibbous, 94% visible
Pressure 29.87 in
Visibility 10.0 miles
Clouds Clear
Heat Index 87 °F
Dew Point 47 °F
Humidity 23%
Rainfall 0.00 in
Snow Depth Not available.
UV 8 out of 12
Pollen 8.00 out of 12
Air Quality Not available.
Flu Activity Not available.
METAR KNID 311756Z 00000KT 10SM CLR 29/05 A2993 RMK AO2 SLP114 T02890050 10289 20156 50002 $
Pressure 29.87 in
Visibility 10.0 miles
Clouds Clear
Heat Index 87 °F
Dew Point 47 °F
Humidity 23%
Rainfall 0.00 in
Snow Depth Not available.
UV 8 out of 12
Pollen 8.00 out of 12
Air Quality Not available.
Flu Activity Not available.
METAR KNID 311756Z 00000KT 10SM CLR 29/05 A2993 RMK AO2 SLP114 T02890050 10289 20156 50002 $

10-Day Weather Forecast

×

Almanac

Astronomy

Aug. 31, 2015 Rise Set
Actual Time
Civil Twilight
Nautical Twilight
Astronomical Twilight
Moon
Length of Visible Light
Length of Day
Tomorrow will be .
, % of the Moon is Illuminated

Today's Extremes

State Highs State Lows

Community

WunderPhotos

Upload Photos

1,851,324 photos uploaded!

WunderBlogs® & News

Nearby

Air Quality

  Air Quality AQ Index Pollutant
Not available.

Snow Depth

Station Depth Elevation

Earthquake Activity

City Distance Mag. Time & Date
Minimum magnitude displayed is 2.5.

Coastal Water Temperatures

Place Temperature

Stations

Nearby Weather Stations

Station Location Temp. Windchill Dew Point Humidity Wind Precip. Elev Updated Type